Villa Grove, CO

9:28 AM MDT on August 29, 2014 (GMT -0600)
Monarch Pass | Change Station
CLOSE
Current Station
Airport
Location: Monarch Pass,
Elevation: 12031 ft
Nearby Weather Stations

Elev 12031 ft 38.48 °N, 106.32 °W | Updated 4 minutes ago

Clear
Clear
45 °F
Feels Like 43 °F
N
4
Wind Variable Wind from ENE

Today
High -- | Low -- °F
--% Chance of Precip.
Yesterday
High -- | Low -- °F
Precip. -- in
6:31 AM 7:38 PM
Waxing Crescent, 15% visible
Pressure 30.66 in
Visibility 10.0 miles
Clouds Clear
Windchill 43 °F
Dew Point 32 °F
Humidity 61%
Rainfall 0.00 in
Snow Depth 0 in
UV 4 out of 12
Pollen 10.10 out of 12
Air Quality Not available.
Flu Activity Not available.
METAR KMYP 291524Z AUTO 06003KT 10SM CLR 07/00 A3066 RMK AO2

More Conditions Fewer Conditions

Pressure 30.66 in
Visibility 10.0 miles
Clouds Clear
Windchill 43 °F
Dew Point 32 °F
Humidity 61%
Rainfall 0.00 in
Snow Depth 0 in
UV 4 out of 12
Pollen 10.10 out of 12
Air Quality Not available.
Flu Activity Not available.
METAR KMYP 291524Z AUTO 06003KT 10SM CLR 07/00 A3066 RMK AO2

More Conditions Fewer Conditions

10-Day Weather Forecast

Almanac

Astronomy

Aug. 29, 2014 Rise Set
Actual Time 6:31 AM MDT 7:38 PM MDT
Civil Twilight 6:04 AM MDT 8:06 PM MDT
Nautical Twilight 5:32 AM MDT 8:38 PM MDT
Astronomical Twilight 4:58 AM MDT 9:12 PM MDT
Moon 10:20 AM MDT 9:42 PM MDT
Length of Visible Light 14h 01m
Length of Day
13h 07m
Tomorrow will be 2m 22s shorter.
Waxing Crescent, 15% of the Moon is Illuminated
Today
Waxing Crescent
Sep 2
First Quarter
Sep 8
Full
Sep 15
Last Quarter
Sep 24
New

Today's Extremes

State Highs State Lows

Community

WunderPhotos

Upload Photos

1,748,263 photos uploaded!

Nearby

Snow Depth

Station Depth Elevation
Porphyry Creek 0 in 10760 ft
Cochetopa Pass 0 in 10020 ft
South Colony 1 in 10800 ft
Park Cone 0 in 9600 ft
Rough And Tumble 1 in 10360 ft

Earthquake Activity

City Distance Mag. Time & Date
No recent earthquake activity has been reported nearby.
Minimum magnitude displayed is 2.5.

Coastal Water Temperatures

Place Temperature
No Stations Reporting

Nearby Weather Stations